createdAt,value
2022-09-15T00:02:01.460Z,18.10
2022-09-15T00:04:28.585Z,18.10
2022-09-15T00:06:55.698Z,18.00
2022-09-15T00:09:22.697Z,18.00
2022-09-15T00:12:02.455Z,17.90
2022-09-15T00:14:29.452Z,17.90
2022-09-15T00:16:56.446Z,17.80
2022-09-15T00:19:23.507Z,17.80
2022-09-15T00:21:50.452Z,17.80
2022-09-15T00:24:17.592Z,17.80
2022-09-15T00:26:44.593Z,17.80
2022-09-15T00:29:12.950Z,17.70
2022-09-15T00:31:40.092Z,17.80
2022-09-15T00:34:07.369Z,17.70
2022-09-15T00:36:34.825Z,17.80
2022-09-15T00:39:02.101Z,17.70
2022-09-15T00:41:29.697Z,17.70
2022-09-15T00:44:44.714Z,17.70
2022-09-15T00:47:19.977Z,17.70
2022-09-15T00:49:52.485Z,17.70
2022-09-15T00:52:34.639Z,17.70
2022-09-15T00:55:10.407Z,17.60
2022-09-15T00:57:53.896Z,17.60
2022-09-15T01:00:24.077Z,17.60
2022-09-15T01:02:51.522Z,17.60
2022-09-15T01:05:21.653Z,17.60
2022-09-15T01:08:17.209Z,17.60
2022-09-15T01:10:44.970Z,17.60
2022-09-15T01:13:14.401Z,17.50
2022-09-15T01:16:33.062Z,17.50
2022-09-15T01:19:59.467Z,17.50
2022-09-15T01:23:12.372Z,17.40
2022-09-15T01:26:21.142Z,17.50
2022-09-15T01:29:24.852Z,17.40
2022-09-15T01:32:28.650Z,17.40
2022-09-15T01:35:07.326Z,17.40
2022-09-15T01:37:39.661Z,17.30
2022-09-15T01:40:09.241Z,17.40
2022-09-15T01:42:37.636Z,17.40
2022-09-15T01:45:11.436Z,17.30
2022-09-15T01:47:39.953Z,17.40
2022-09-15T01:50:11.741Z,17.50
2022-09-15T01:52:43.193Z,17.40
2022-09-15T01:55:20.314Z,17.40
2022-09-15T01:57:47.396Z,17.40
2022-09-15T02:00:14.787Z,17.40
2022-09-15T02:02:48.251Z,17.40
2022-09-15T02:05:48.022Z,17.40
2022-09-15T02:08:28.583Z,17.40
2022-09-15T02:11:18.471Z,17.50
2022-09-15T02:14:10.630Z,17.50
2022-09-15T02:16:41.760Z,17.50
2022-09-15T02:19:31.308Z,17.30
2022-09-15T02:22:17.787Z,17.40
2022-09-15T02:24:50.258Z,17.30
2022-09-15T02:27:24.758Z,17.20
2022-09-15T02:29:55.418Z,17.20
2022-09-15T03:44:17.617Z,17.20
2022-09-15T03:51:39.769Z,16.30
2022-09-15T03:54:06.823Z,16.30
2022-09-15T03:56:33.826Z,16.30
2022-09-15T03:59:02.577Z,16.30
2022-09-15T04:01:31.052Z,16.40
2022-09-15T04:03:58.594Z,16.40
2022-09-15T04:06:26.961Z,16.40
2022-09-15T04:08:54.879Z,16.40
2022-09-15T04:11:22.810Z,16.40
2022-09-15T04:13:49.964Z,16.40
2022-09-15T04:26:20.308Z,16.40
2022-09-15T04:33:44.412Z,16.70
2022-09-15T04:36:17.352Z,16.70
2022-09-15T04:38:45.029Z,16.70
2022-09-15T04:41:12.927Z,16.70
2022-09-15T04:43:40.666Z,16.60
2022-09-15T04:46:07.946Z,16.70
2022-09-15T04:48:35.538Z,16.80
2022-09-15T04:51:07.393Z,16.80
2022-09-15T04:53:35.769Z,16.90
2022-09-15T04:56:12.405Z,16.80
2022-09-15T04:58:40.797Z,16.70
2022-09-15T05:01:14.179Z,16.80
2022-09-15T05:03:42.408Z,16.80
2022-09-15T05:06:12.067Z,16.80
2022-09-15T05:08:39.316Z,16.80
2022-09-15T05:11:09.920Z,16.70
2022-09-15T05:13:38.179Z,16.60
2022-09-15T05:16:13.621Z,16.60
2022-09-15T05:18:42.697Z,16.50
2022-09-15T05:21:11.630Z,16.50
2022-09-15T05:23:39.090Z,16.40
2022-09-15T05:26:15.392Z,16.40
2022-09-15T05:28:42.769Z,16.40
2022-09-15T05:31:13.285Z,16.40
2022-09-15T05:33:40.471Z,16.40
2022-09-15T05:36:07.958Z,16.50
2022-09-15T05:38:35.054Z,16.60
2022-09-15T05:41:07.459Z,16.60
2022-09-15T05:43:36.000Z,16.60
2022-09-15T05:46:04.068Z,16.60
2022-09-15T05:48:31.340Z,16.60
2022-09-15T05:50:58.793Z,16.70
2022-09-15T05:53:26.507Z,16.70
2022-09-15T05:56:01.546Z,16.80
2022-09-15T05:58:28.914Z,16.70
2022-09-15T06:00:56.122Z,16.70
2022-09-15T06:03:28.740Z,16.70
2022-09-15T06:06:02.261Z,16.70
2022-09-15T06:08:37.437Z,16.70
2022-09-15T06:11:15.927Z,16.80
2022-09-15T06:13:43.640Z,16.70
2022-09-15T06:16:13.944Z,16.80
2022-09-15T06:18:41.902Z,16.80
2022-09-15T06:21:11.830Z,16.90
2022-09-15T06:23:39.414Z,17.00
2022-09-15T06:26:15.755Z,17.20
2022-09-15T06:28:48.584Z,17.30
2022-09-15T06:31:16.288Z,17.50
2022-09-15T06:33:45.519Z,17.60
2022-09-15T06:36:13.766Z,17.80
2022-09-15T06:38:41.795Z,17.90
2022-09-15T06:41:09.742Z,18.20
2022-09-15T06:43:36.807Z,18.20
2022-09-15T06:46:06.315Z,18.20
2022-09-15T06:48:33.730Z,17.90
2022-09-15T06:51:01.563Z,17.80
2022-09-15T06:53:33.451Z,17.70
2022-09-15T06:56:09.533Z,17.60
2022-09-15T06:58:38.173Z,17.60
2022-09-15T07:01:10.797Z,17.50
2022-09-15T07:03:39.165Z,17.50
2022-09-15T07:06:08.064Z,17.50
2022-09-15T07:08:35.539Z,17.40
2022-09-15T07:11:02.621Z,17.40
2022-09-15T07:13:29.934Z,17.40
2022-09-15T07:15:59.215Z,17.40
2022-09-15T07:18:27.151Z,17.40
2022-09-15T07:20:59.560Z,17.20
2022-09-15T07:23:26.804Z,17.10
2022-09-15T07:40:49.259Z,17.10
2022-09-15T07:43:16.809Z,17.00
2022-09-15T07:53:07.314Z,16.90
2022-09-15T07:55:34.419Z,17.10
2022-09-15T07:58:01.863Z,17.00
2022-09-15T08:00:29.473Z,17.00
2022-09-15T08:02:56.992Z,17.00
2022-09-15T08:05:28.477Z,17.00
2022-09-15T08:07:56.289Z,16.90
2022-09-15T08:32:35.731Z,17.00
2022-09-15T08:35:02.727Z,16.80
2022-09-15T08:37:29.749Z,16.90
2022-09-15T09:04:17.525Z,17.20
2022-09-15T09:07:18.046Z,17.00
2022-09-15T09:10:19.529Z,17.00
2022-09-15T09:13:19.967Z,17.10
2022-09-15T09:16:21.958Z,17.10
2022-09-15T09:19:17.130Z,17.10
2022-09-15T09:22:02.024Z,17.20
2022-09-15T09:24:40.301Z,17.40
2022-09-15T09:27:18.373Z,17.40
2022-09-15T09:29:50.018Z,17.50
2022-09-15T09:32:25.042Z,17.50
2022-09-15T09:35:09.257Z,17.40
2022-09-15T09:37:36.430Z,17.40
2022-09-15T09:40:03.702Z,17.30
2022-09-15T09:42:34.796Z,17.40
2022-09-15T09:45:01.933Z,17.50
2022-09-15T09:47:30.094Z,17.50
2022-09-15T09:49:57.222Z,17.40
2022-09-15T09:52:38.761Z,17.20
2022-09-15T09:55:23.816Z,17.30
2022-09-15T09:57:51.495Z,17.30
2022-09-15T10:00:39.310Z,17.40
2022-09-15T10:03:29.432Z,17.50
2022-09-15T10:06:06.463Z,17.80
2022-09-15T10:08:36.483Z,17.90
2022-09-15T10:11:06.802Z,18.00
2022-09-15T10:13:49.726Z,18.00
2022-09-15T10:18:50.971Z,18.90
2022-09-15T10:21:24.995Z,19.20
2022-09-15T10:23:52.441Z,18.90
2022-09-15T10:26:39.402Z,19.10
2022-09-15T10:29:18.272Z,19.30
2022-09-15T10:37:01.725Z,18.60
2022-09-15T10:48:17.928Z,18.20
2022-09-15T10:56:42.978Z,17.80
2022-09-15T10:59:54.652Z,17.70
2022-09-15T11:03:02.221Z,17.80
2022-09-15T11:06:21.393Z,18.20
2022-09-15T11:09:17.500Z,18.30
2022-09-15T11:12:29.344Z,18.50
2022-09-15T11:30:24.956Z,18.20
2022-09-15T11:33:07.615Z,18.20
2022-09-15T11:41:56.671Z,18.20
2022-09-15T11:44:40.018Z,18.30
2022-09-15T11:47:31.904Z,18.30
2022-09-15T11:50:18.178Z,18.30
2022-09-15T11:53:27.737Z,18.10
2022-09-15T11:56:09.681Z,18.20
2022-09-15T11:59:03.816Z,18.40
2022-09-15T12:01:59.420Z,18.30
2022-09-15T12:04:33.455Z,18.20
2022-09-15T12:07:28.925Z,18.30
2022-09-15T12:10:04.388Z,18.20
2022-09-15T12:20:13.008Z,18.20
2022-09-15T12:23:14.614Z,18.30
2022-09-15T12:26:20.873Z,18.20
2022-09-15T12:29:02.620Z,18.70
2022-09-15T12:31:38.069Z,18.90
2022-09-15T12:34:45.880Z,19.10
2022-09-15T12:37:16.276Z,19.80
2022-09-15T12:39:45.335Z,20.30
2022-09-15T12:42:25.311Z,20.60
2022-09-15T12:44:58.993Z,20.50
2022-09-15T12:47:49.272Z,20.50
2022-09-15T13:06:17.054Z,21.30
2022-09-15T13:09:14.322Z,21.30
2022-09-15T13:11:47.668Z,21.50
2022-09-15T13:14:29.171Z,21.50
2022-09-15T13:17:16.722Z,21.30
2022-09-15T13:19:50.757Z,21.70
2022-09-15T13:22:41.428Z,20.90
2022-09-15T13:25:29.154Z,20.30
2022-09-15T13:28:02.347Z,20.20
2022-09-15T13:31:16.897Z,20.00
2022-09-15T13:40:59.095Z,19.40
2022-09-15T13:44:25.859Z,19.20
2022-09-15T13:47:30.333Z,19.20
2022-09-15T13:50:45.516Z,18.90
2022-09-15T13:55:54.726Z,18.90
2022-09-15T14:01:12.483Z,18.60
2022-09-15T14:03:49.156Z,18.80
2022-09-15T14:06:24.395Z,18.60
2022-09-15T14:08:55.118Z,18.10
2022-09-15T14:23:53.129Z,17.80
2022-09-15T14:26:24.994Z,17.80
2022-09-15T14:29:04.145Z,17.70
2022-09-15T14:31:42.800Z,17.80
2022-09-15T14:34:21.545Z,17.90
2022-09-15T14:37:03.340Z,17.90
2022-09-15T14:39:30.819Z,17.90
2022-09-15T14:47:28.726Z,17.80
2022-09-15T14:50:32.551Z,17.70
2022-09-15T14:53:06.909Z,17.70
2022-09-15T14:55:57.111Z,17.70
2022-09-15T14:58:30.553Z,17.80
2022-09-15T15:01:28.116Z,17.90
2022-09-15T15:04:38.372Z,18.00
2022-09-15T15:07:30.457Z,17.90
2022-09-15T15:10:25.468Z,17.90
2022-09-15T15:13:08.939Z,17.80
2022-09-15T15:15:38.753Z,17.70
2022-09-15T15:18:30.995Z,17.70
2022-09-15T15:20:59.225Z,17.70
2022-09-15T15:23:27.141Z,17.70
2022-09-15T15:26:14.603Z,17.80
2022-09-15T15:28:41.896Z,17.80
2022-09-15T15:31:38.527Z,17.90
2022-09-15T15:34:19.725Z,17.90
2022-09-15T15:36:47.252Z,17.90
2022-09-15T15:39:25.668Z,18.00
2022-09-15T15:42:05.179Z,18.00
2022-09-15T15:44:32.965Z,18.00
2022-09-15T15:47:25.886Z,17.90
2022-09-15T15:50:19.606Z,17.90
2022-09-15T15:52:50.540Z,17.90
2022-09-15T15:55:26.912Z,17.80
2022-09-15T15:57:55.521Z,17.80
2022-09-15T16:00:32.829Z,17.80
2022-09-15T16:03:00.015Z,17.80
2022-09-15T16:05:29.262Z,17.70
2022-09-15T16:07:59.376Z,17.70
2022-09-15T16:10:30.673Z,17.60
2022-09-15T16:12:57.741Z,17.60
2022-09-15T16:15:24.771Z,17.50
2022-09-15T16:17:51.885Z,17.60
2022-09-15T16:20:24.599Z,17.60
2022-09-15T16:22:52.397Z,17.70
2022-09-15T16:25:36.816Z,17.60
2022-09-15T16:28:04.769Z,17.70
2022-09-15T16:30:32.475Z,17.70
2022-09-15T16:32:59.745Z,17.70
2022-09-15T16:35:39.853Z,17.70
2022-09-15T16:38:08.427Z,17.70
2022-09-15T16:40:37.630Z,17.70
2022-09-15T16:43:09.269Z,17.60
2022-09-15T16:45:40.588Z,17.70
2022-09-15T16:48:09.643Z,17.70
2022-09-15T16:50:39.809Z,17.70
2022-09-15T16:53:21.531Z,17.70
2022-09-15T16:55:53.477Z,17.60
2022-09-15T16:58:22.238Z,17.60
2022-09-15T17:00:51.680Z,17.70
2022-09-15T17:03:21.268Z,17.70
2022-09-15T17:05:50.324Z,17.60
2022-09-15T17:08:19.713Z,17.70
2022-09-15T17:10:48.422Z,17.70
2022-09-15T17:13:23.050Z,17.60
2022-09-15T17:15:54.221Z,17.60
2022-09-15T17:18:22.051Z,17.60
2022-09-15T17:20:50.666Z,17.60
2022-09-15T17:23:26.130Z,17.50
2022-09-15T17:25:59.125Z,17.50
2022-09-15T17:28:29.245Z,17.50
2022-09-15T17:31:02.469Z,17.60
2022-09-15T17:33:31.280Z,17.60
2022-09-15T17:35:59.751Z,17.50
2022-09-15T17:38:27.264Z,17.40
2022-09-15T17:40:55.552Z,17.40
2022-09-15T17:43:28.273Z,17.30
2022-09-15T17:45:55.346Z,17.20
2022-09-15T17:48:23.108Z,17.20
2022-09-15T17:50:50.649Z,17.20
2022-09-15T17:53:26.920Z,17.00
2022-09-15T17:55:55.619Z,17.00
2022-09-15T17:58:24.984Z,16.90
2022-09-15T18:00:52.697Z,16.80
2022-09-15T18:03:28.238Z,16.80
2022-09-15T18:06:00.027Z,16.80
2022-09-15T18:08:27.946Z,16.80
2022-09-15T18:10:55.297Z,16.80
2022-09-15T18:13:26.598Z,16.80
2022-09-15T18:15:54.574Z,16.70
2022-09-15T18:18:26.711Z,16.70
2022-09-15T18:20:55.927Z,16.70
2022-09-15T18:23:25.312Z,16.70
2022-09-15T18:25:52.765Z,16.60
2022-09-15T18:28:19.928Z,16.70
2022-09-15T18:30:49.369Z,16.70
2022-09-15T18:33:22.040Z,16.70
2022-09-15T18:35:51.183Z,16.80
2022-09-15T18:38:18.843Z,16.80
2022-09-15T18:40:55.528Z,16.70
2022-09-15T18:43:25.288Z,16.70
2022-09-15T18:45:55.137Z,16.70
2022-09-15T18:48:22.297Z,16.80
2022-09-15T18:50:49.456Z,16.80
2022-09-15T18:53:16.693Z,16.80
2022-09-15T18:55:43.868Z,16.80
2022-09-15T18:58:11.950Z,16.80
2022-09-15T19:00:39.787Z,16.80
2022-09-15T19:03:09.654Z,16.70
2022-09-15T19:05:37.669Z,16.80
2022-09-15T19:08:04.948Z,16.70
2022-09-15T19:10:32.619Z,16.70
2022-09-15T19:12:59.650Z,16.70
2022-09-15T19:15:29.363Z,16.60
2022-09-15T19:17:56.539Z,16.50
2022-09-15T19:20:23.692Z,16.40
2022-09-15T19:22:51.760Z,16.40
2022-09-15T19:25:19.210Z,16.30
2022-09-15T19:27:47.934Z,16.20
2022-09-15T19:30:15.399Z,16.20
2022-09-15T19:32:43.228Z,16.10
2022-09-15T19:35:11.405Z,16.10
2022-09-15T19:37:41.026Z,16.00
2022-09-15T19:40:11.006Z,15.90
2022-09-15T19:42:39.724Z,15.90
2022-09-15T19:45:08.159Z,15.90
2022-09-15T19:47:35.568Z,15.80
2022-09-15T19:50:03.382Z,15.80
2022-09-15T19:52:30.496Z,15.80
2022-09-15T19:54:57.701Z,15.80
2022-09-15T19:57:25.101Z,15.90
2022-09-15T19:59:52.436Z,16.00
2022-09-15T20:02:20.059Z,16.00
2022-09-15T20:07:33.093Z,16.00
2022-09-15T20:10:00.087Z,16.00
2022-09-15T20:12:27.087Z,16.00
2022-09-15T20:14:54.310Z,16.10
2022-09-15T20:17:21.315Z,16.10
2022-09-15T20:19:48.598Z,16.10
2022-09-15T20:22:15.620Z,16.00
2022-09-15T20:24:42.672Z,16.00
2022-09-15T20:27:09.703Z,16.00
2022-09-15T20:29:36.735Z,15.90
2022-09-15T20:32:04.077Z,16.00
2022-09-15T20:34:31.092Z,15.90
2022-09-15T20:36:58.137Z,15.90
2022-09-15T20:39:25.925Z,15.90
2022-09-15T20:41:52.997Z,15.90
2022-09-15T20:44:20.215Z,15.90
2022-09-15T20:46:47.227Z,15.90
2022-09-15T20:49:14.407Z,15.90
2022-09-15T20:51:41.450Z,15.90
2022-09-15T20:54:09.632Z,16.00
2022-09-15T20:56:36.823Z,16.00
2022-09-15T20:59:05.421Z,16.00
2022-09-15T21:01:34.946Z,16.10
